Time;durP1;ratioP1;P1;durP2;ratioP2;P2;SDS_P1;SDS_P2;PMS_P1;PMS_P2;Temp;Humidity;BMP_temperature;BMP_pressure;BME280_temperature;BME280_humidity;BME280_pressure;Samples;Min_cycle;Max_cycle;Signal;HPM_P1;HPM_P2
2021/06/20 00:07:14;;;;;;;3.67;1.10;;;21.50;45.70;;;;;;20667157;28;20487;-55
2021/06/20 00:17:16;;;;;;;1.95;1.20;;;21.50;46.00;;;;;;20666074;28;20145;-55
2021/06/20 00:27:18;;;;;;;3.03;1.47;;;21.40;46.50;;;;;;20665676;28;20053;-55
2021/06/20 00:37:24;;;;;;;3.20;1.80;;;21.30;47.30;;;;;;20664694;28;20050;-55
2021/06/20 00:47:29;;;;;;;3.00;1.20;;;21.30;47.60;;;;;;20664667;28;20046;-54
2021/06/20 00:57:33;;;;;;;2.42;1.42;;;21.20;48.20;;;;;;20669014;28;20060;-56
2021/06/20 01:07:37;;;;;;;1.83;1.10;;;21.10;48.50;;;;;;20679949;28;20422;-56
2021/06/20 01:17:41;;;;;;;4.28;1.20;;;21.20;48.50;;;;;;20678843;28;20090;-56
2021/06/20 01:27:53;;;;;;;2.85;1.13;;;21.20;49.00;;;;;;20678209;28;20090;-56
2021/06/20 01:38:06;;;;;;;2.75;1.48;;;21.00;49.20;;;;;;20677531;28;20061;-56
2021/06/20 01:48:13;;;;;;;1.90;0.95;;;20.90;49.30;;;;;;20677375;28;20482;-54
2021/06/20 01:58:24;;;;;;;5.03;1.42;;;20.80;50.00;;;;;;20676471;28;20479;-55
2021/06/20 02:08:39;;;;;;;1.95;1.10;;;20.70;50.40;;;;;;20675823;28;20047;-56
2021/06/20 02:18:50;;;;;;;1.90;1.20;;;20.60;51.50;;;;;;20675326;28;20105;-56
2021/06/20 02:29:02;;;;;;;2.25;1.45;;;20.40;52.10;;;;;;20675032;28;20046;-55
2021/06/20 02:39:16;;;;;;;2.45;1.23;;;20.30;52.50;;;;;;20674435;28;20058;-56
2021/06/20 02:49:29;;;;;;;2.92;1.50;;;20.20;53.00;;;;;;20673574;28;20093;-55
2021/06/20 02:59:37;;;;;;;4.70;1.63;;;20.20;53.70;;;;;;20672648;28;20445;-56
2021/06/20 03:09:48;;;;;;;2.03;1.30;;;20.10;54.30;;;;;;20672319;28;20076;-55
2021/06/20 03:19:54;;;;;;;2.70;1.65;;;20.00;54.40;;;;;;20670800;28;20458;-56
2021/06/20 03:30:03;;;;;;;2.75;1.65;;;20.00;54.60;;;;;;20670172;28;20046;-57
2021/06/20 03:40:09;;;;;;;3.35;1.70;;;20.00;55.10;;;;;;20669259;28;20145;-56
2021/06/20 03:50:23;;;;;;;4.03;1.77;;;19.90;55.30;;;;;;20669182;28;20049;-56
2021/06/20 04:00:44;;;;;;;2.60;1.30;;;19.80;55.30;;;;;;20667850;28;20056;-57
2021/06/20 04:11:02;;;;;;;4.03;1.70;;;19.70;56.00;;;;;;20668230;28;20126;-56
2021/06/20 04:21:21;;;;;;;3.28;1.70;;;19.50;56.50;;;;;;20666992;28;20054;-57
2021/06/20 04:31:32;;;;;;;3.05;1.33;;;19.60;56.60;;;;;;20665607;28;20042;-56
2021/06/20 04:41:41;;;;;;;3.05;1.70;;;19.60;56.70;;;;;;20665730;28;20550;-57
2021/06/20 04:52:08;;;;;;;3.83;1.70;;;19.60;56.70;;;;;;20666490;28;20042;-55
2021/06/20 05:02:20;;;;;;;2.67;1.70;;;19.60;57.10;;;;;;20665110;28;20081;-55
2021/06/20 05:12:29;;;;;;;4.63;2.25;;;19.50;57.50;;;;;;20664793;28;20074;-54
2021/06/20 05:22:34;;;;;;;4.32;2.28;;;19.50;57.50;;;;;;20665287;28;20050;-57
2021/06/20 05:32:39;;;;;;;3.25;2.17;;;19.30;58.00;;;;;;20665425;28;20402;-56
2021/06/20 05:42:46;;;;;;;3.92;2.00;;;19.30;58.00;;;;;;20667817;28;20093;-56
2021/06/20 05:52:50;;;;;;;5.07;2.47;;;19.40;57.90;;;;;;20680730;28;20046;-56
2021/06/20 06:02:59;;;;;;;5.85;2.03;;;19.50;57.70;;;;;;20678763;28;20062;-56
2021/06/20 06:13:04;;;;;;;3.40;2.42;;;19.40;57.70;;;;;;20677175;28;20396;-56
2021/06/20 06:23:13;;;;;;;5.43;2.17;;;19.40;57.70;;;;;;20677557;28;20104;-54
2021/06/20 06:33:21;;;;;;;4.15;2.60;;;19.50;57.70;;;;;;20676867;28;20054;-54
2021/06/20 06:43:25;;;;;;;7.40;3.38;;;19.70;57.00;;;;;;20674884;28;20085;-56
2021/06/20 06:53:31;;;;;;;5.35;2.42;;;19.70;56.90;;;;;;20674170;28;20061;-55
2021/06/20 07:03:39;;;;;;;8.35;3.65;;;19.60;57.20;;;;;;20674142;28;20050;-56
2021/06/20 07:13:45;;;;;;;6.03;2.72;;;19.70;57.00;;;;;;20673271;28;20512;-56
2021/06/20 07:23:49;;;;;;;4.93;2.53;;;19.70;59.90;;;;;;20672750;28;20105;-53
2021/06/20 07:33:52;;;;;;;;;;;19.80;57.50;;;;;;20673464;28;20046;-54
2021/06/20 07:43:56;;;;;;;9.48;2.88;;;19.80;56.70;;;;;;20670460;28;19933;-55
2021/06/20 07:54:02;;;;;;;5.43;2.67;;;20.10;57.10;;;;;;20684945;28;20061;-55
2021/06/20 08:04:06;;;;;;;5.10;2.47;;;20.30;58.20;;;;;;20669685;28;20151;-58
2021/06/20 08:14:15;;;;;;;5.82;2.70;;;20.30;59.20;;;;;;20669557;28;20418;-54
2021/06/20 08:24:20;;;;;;;8.05;2.78;;;20.10;58.80;;;;;;20667006;28;20090;-55
2021/06/20 08:34:30;;;;;;;6.25;3.05;;;19.90;59.40;;;;;;20665453;28;20403;-57
2021/06/20 08:44:32;;;;;;;7.10;2.78;;;19.50;62.20;;;;;;20664720;28;20149;-56
2021/06/20 08:54:34;;;;;;;5.47;2.80;;;19.40;62.30;;;;;;20665192;28;20078;-53
2021/06/20 09:04:38;;;;;;;9.48;3.05;;;19.00;63.90;;;;;;20678770;28;20062;-55
2021/06/20 09:14:48;;;;;;;8.75;4.13;;;18.90;63.70;;;;;;20663132;28;20050;-55
2021/06/20 09:25:14;;;;;;;6.22;3.40;;;18.90;64.20;;;;;;20677836;28;20050;-54
2021/06/20 09:35:16;;;;;;;5.75;3.22;;;18.80;64.70;;;;;;20678427;28;20120;-55
2021/06/20 09:45:31;;;;;;;4.82;2.80;;;19.00;65.40;;;;;;20678171;28;20090;-54
2021/06/20 09:55:34;;;;;;;6.20;3.75;;;19.10;64.90;;;;;;20677217;28;20049;-58
2021/06/20 10:05:37;;;;;;;5.70;3.30;;;19.20;64.60;;;;;;20677551;28;20070;-56
2021/06/20 10:15:38;;;;;;;7.07;3.97;;;19.60;61.90;;;;;;20675016;28;20050;-55
2021/06/20 10:25:40;;;;;;;5.47;2.88;;;19.90;59.50;;;;;;20674760;28;20136;-53
2021/06/20 10:35:44;;;;;;;6.95;3.92;;;19.90;59.10;;;;;;20672765;28;20066;-54
2021/06/20 10:45:46;;;;;;;6.90;3.40;;;20.20;59.00;;;;;;20673424;28;20062;-56
2021/06/20 10:55:56;;;;;;;9.77;3.17;;;20.90;57.20;;;;;;20672601;28;20053;-56
2021/06/20 11:06:13;;;;;;;5.85;2.47;;;21.10;54.60;;;;;;20670967;28;20590;-56
2021/06/20 11:16:30;;;;;;;3.70;2.45;;;21.70;51.30;;;;;;20671800;28;20065;-57
2021/06/20 11:26:32;;;;;;;4.60;2.03;;;21.80;49.00;;;;;;20671681;28;20090;-53
2021/06/20 11:36:34;;;;;;;4.90;1.83;;;21.70;49.00;;;;;;20671587;28;20113;-56
2021/06/20 11:46:35;;;;;;;3.63;1.95;;;21.60;49.20;;;;;;20671282;28;20082;-52
2021/06/20 11:56:40;;;;;;;6.13;2.20;;;21.90;49.50;;;;;;20669747;28;20046;-54
2021/06/20 12:06:42;;;;;;;4.75;2.63;;;21.90;49.60;;;;;;20668561;28;20061;-54
2021/06/20 12:16:48;;;;;;;7.72;2.80;;;21.40;50.70;;;;;;20668303;28;20518;-57
2021/06/20 12:26:52;;;;;;;7.18;4.57;;;21.90;48.90;;;;;;20667533;28;20074;-56
2021/06/20 12:37:00;;;;;;;3.90;2.53;;;22.00;48.40;;;;;;20667201;28;20054;-55
2021/06/20 12:47:04;;;;;;;3.10;1.60;;;22.20;48.80;;;;;;20666857;28;20169;-57
2021/06/20 12:57:09;;;;;;;3.13;1.90;;;22.50;48.30;;;;;;20665145;28;20062;-56
2021/06/20 13:07:12;;;;;;;4.13;1.50;;;22.60;48.00;;;;;;20666034;28;20053;-55
2021/06/20 13:17:15;;;;;;;2.77;1.57;;;22.70;47.40;;;;;;20665264;28;20146;-55
2021/06/20 13:27:17;;;;;;;3.90;2.55;;;23.10;46.40;;;;;;20664963;28;20057;-57
2021/06/20 13:37:22;;;;;;;;;;;23.00;46.50;;;;;;20665566;28;20047;-56
2021/06/20 13:47:25;;;;;;;3.17;1.73;;;23.20;46.40;;;;;;20664309;28;20292;-56
2021/06/20 13:57:28;;;;;;;2.70;1.30;;;23.20;46.80;;;;;;20663061;28;20054;-54
2021/06/20 14:07:30;;;;;;;2.28;1.38;;;23.10;47.40;;;;;;20671655;28;20467;-55
2021/06/20 14:17:33;;;;;;;2.85;1.25;;;22.70;48.80;;;;;;20678238;28;20061;-54
2021/06/20 14:27:36;;;;;;;2.28;1.00;;;22.70;48.60;;;;;;20675955;28;20057;-55
2021/06/20 14:37:39;;;;;;;3.30;1.80;;;22.50;49.60;;;;;;20675846;28;20108;-55
2021/06/20 14:47:42;;;;;;;2.95;1.58;;;22.30;50.00;;;;;;20674222;28;20070;-56
2021/06/20 14:57:45;;;;;;;3.15;1.40;;;22.30;50.10;;;;;;20674367;28;20057;-56
2021/06/20 15:07:48;;;;;;;4.40;3.05;;;22.40;49.90;;;;;;20672872;28;20046;-55
2021/06/20 15:17:51;;;;;;;2.13;1.27;;;22.40;50.10;;;;;;20671818;28;20054;-55
2021/06/20 15:27:54;;;;;;;2.58;1.48;;;22.40;50.20;;;;;;20672231;28;20524;-56
2021/06/20 15:38:00;;;;;;;1.80;0.85;;;22.20;50.60;;;;;;20686550;28;20507;-55
2021/06/20 15:48:04;;;;;;;2.30;1.20;;;21.90;51.60;;;;;;20670917;28;20074;-53
2021/06/20 15:58:07;;;;;;;2.67;1.00;;;21.80;52.00;;;;;;20670353;28;20050;-52
2021/06/20 16:08:09;;;;;;;3.63;2.33;;;21.90;52.00;;;;;;20669397;28;20046;-57
2021/06/20 16:18:11;;;;;;;1.85;1.35;;;22.10;51.60;;;;;;20668561;28;20104;-59
2021/06/20 16:28:14;;;;;;;;;;;22.30;51.10;;;;;;20666402;28;20046;-55
2021/06/20 16:38:17;;;;;;;1.75;1.10;;;22.20;51.20;;;;;;20667861;28;20323;-56
2021/06/20 16:48:20;;;;;;;2.83;1.40;;;22.20;51.50;;;;;;20666241;28;20082;-55
2021/06/20 16:58:23;;;;;;;3.27;1.63;;;22.30;51.00;;;;;;20665463;28;20054;-54
2021/06/20 17:08:26;;;;;;;3.17;1.88;;;22.20;51.40;;;;;;20665433;28;20050;-54
2021/06/20 17:18:27;;;;;;;3.53;1.75;;;22.30;51.40;;;;;;20665749;28;20480;-55
2021/06/20 17:28:30;;;;;;;2.10;1.23;;;22.20;51.70;;;;;;20665089;28;20042;-57
2021/06/20 17:38:34;;;;;;;3.05;1.30;;;22.30;51.40;;;;;;20667659;28;20410;-58
2021/06/20 17:48:37;;;;;;;5.45;3.95;;;22.20;51.70;;;;;;20679861;28;20050;-56
2021/06/20 17:58:39;;;;;;;1.52;0.82;;;22.10;52.10;;;;;;20680180;28;20460;-54
2021/06/20 18:08:41;;;;;;;3.90;2.43;;;22.10;52.00;;;;;;20679755;28;20046;-54
2021/06/20 18:18:43;;;;;;;3.55;1.63;;;22.10;52.10;;;;;;20678056;28;20388;-55
2021/06/20 18:28:46;;;;;;;3.30;1.23;;;22.10;51.90;;;;;;20678162;28;20046;-55
2021/06/20 18:38:47;;;;;;;2.17;1.17;;;21.80;52.70;;;;;;20675609;28;20093;-54
2021/06/20 18:48:49;;;;;;;1.70;0.90;;;21.70;52.90;;;;;;20674823;28;20077;-56
2021/06/20 18:58:51;;;;;;;1.30;1.00;;;21.80;52.90;;;;;;20674893;28;20133;-56
2021/06/20 19:08:53;;;;;;;2.35;0.90;;;21.80;52.90;;;;;;20674350;28;20104;-55
2021/06/20 19:18:54;;;;;;;2.10;1.08;;;21.70;52.80;;;;;;20673198;28;20058;-56
2021/06/20 19:28:56;;;;;;;1.80;1.10;;;21.70;53.20;;;;;;20672460;28;20051;-58
2021/06/20 19:38:58;;;;;;;2.97;1.30;;;21.60;53.30;;;;;;20671846;28;20452;-57
2021/06/20 19:49:01;;;;;;;2.73;1.70;;;21.70;52.90;;;;;;20670687;28;20054;-58
2021/06/20 19:59:02;;;;;;;1.30;0.80;;;21.70;53.60;;;;;;20669765;28;20085;-54
2021/06/20 20:09:04;;;;;;;2.03;1.20;;;21.60;53.90;;;;;;20668586;28;20047;-57
2021/06/20 20:19:06;;;;;;;2.63;1.35;;;21.40;54.40;;;;;;20668617;28;20483;-55
2021/06/20 20:29:08;;;;;;;2.27;1.10;;;21.40;55.10;;;;;;20667459;28;20046;-53
2021/06/20 20:39:10;;;;;;;2.22;1.33;;;21.20;56.20;;;;;;20666910;28;20501;-55
2021/06/20 20:49:12;;;;;;;2.73;1.30;;;21.10;59.20;;;;;;20667249;28;20498;-54
2021/06/20 20:59:14;;;;;;;1.70;1.13;;;20.80;60.60;;;;;;20667040;28;20494;-54
2021/06/20 21:09:16;;;;;;;2.03;1.13;;;20.70;61.60;;;;;;20666435;28;20092;-53
2021/06/20 21:19:18;;;;;;;2.15;1.27;;;20.60;61.60;;;;;;20678009;28;20062;-55
2021/06/20 21:29:20;;;;;;;3.15;1.10;;;20.60;61.10;;;;;;20682142;28;20050;-60
2021/06/20 21:39:22;;;;;;;1.65;1.10;;;20.50;60.90;;;;;;20681778;28;20503;-57
2021/06/20 21:49:23;;;;;;;2.03;1.30;;;20.50;61.10;;;;;;20681310;28;20125;-55
2021/06/20 21:59:26;;;;;;;1.50;1.00;;;20.40;61.70;;;;;;20679985;28;20379;-55
2021/06/20 22:09:28;;;;;;;3.33;1.30;;;20.20;62.30;;;;;;20679185;28;20423;-54
2021/06/20 22:19:29;;;;;;;1.70;1.10;;;20.20;62.80;;;;;;20678023;28;20104;-56
2021/06/20 22:29:31;;;;;;;2.63;1.63;;;20.00;63.20;;;;;;20677191;28;20066;-54
2021/06/20 22:39:34;;;;;;;3.80;2.53;;;19.90;64.00;;;;;;20677745;28;20558;-56
2021/06/20 22:49:36;;;;;;;3.00;2.30;;;19.70;65.10;;;;;;20675946;28;20062;-54
2021/06/20 22:59:38;;;;;;;4.68;2.90;;;19.70;65.80;;;;;;20674765;28;20153;-53
2021/06/20 23:09:40;;;;;;;6.05;3.10;;;19.60;66.30;;;;;;20675106;28;20042;-57
2021/06/20 23:19:42;;;;;;;4.23;2.20;;;19.60;66.30;;;;;;20673932;28;20137;-54
2021/06/20 23:29:44;;;;;;;2.75;2.00;;;19.50;66.40;;;;;;20688766;28;20089;-57
2021/06/20 23:39:46;;;;;;;11.48;8.75;;;19.40;66.30;;;;;;20671686;28;20050;-56
2021/06/20 23:49:47;;;;;;;2.58;1.40;;;19.50;65.60;;;;;;20671176;28;20046;-56
2021/06/20 23:59:49;;;;;;;2.25;1.67;;;19.70;63.80;;;;;;20671098;28;20050;-57
